Time;durP1;ratioP1;P1;durP2;ratioP2;P2;SDS_P1;SDS_P2;PMS_P1;PMS_P2;Temp;Humidity;BMP_temperature;BMP_pressure;BME280_temperature;BME280_humidity;BME280_pressure;Samples;Min_cycle;Max_cycle;Signal;HPM_P1;HPM_P2
2021/06/06 00:01:40;;;;;;;8.80;7.50;;;21.80;99.90;;;;;;5116920;28;20199;-67
2021/06/06 00:04:09;;;;;;;7.87;7.17;;;21.90;99.90;;;;;;5116720;28;20392;-67
2021/06/06 00:06:37;;;;;;;9.40;8.50;;;22.10;99.90;;;;;;5115456;28;20450;-67
2021/06/06 00:09:07;;;;;;;12.70;8.03;;;22.10;99.90;;;;;;5116614;28;20416;-68
2021/06/06 00:11:38;;;;;;;9.43;8.20;;;22.10;99.90;;;;;;5116660;28;20445;-68
2021/06/06 00:14:07;;;;;;;12.70;8.20;;;22.20;99.90;;;;;;5116636;28;20818;-68
2021/06/06 00:16:39;;;;;;;11.17;9.10;;;22.20;99.90;;;;;;5116225;28;20500;-68
2021/06/06 00:19:06;;;;;;;10.60;8.27;;;22.10;99.90;;;;;;5116365;28;20458;-68
2021/06/06 00:21:32;;;;;;;9.90;8.90;;;21.90;99.90;;;;;;5116531;28;20937;-67
2021/06/06 00:23:58;;;;;;;8.97;8.17;;;21.80;99.90;;;;;;5116342;28;20405;-68
2021/06/06 00:26:24;;;;;;;10.13;8.70;;;21.70;99.90;;;;;;5116284;28;20929;-68
2021/06/06 00:28:50;;;;;;;11.20;9.40;;;21.70;99.90;;;;;;5115816;28;21038;-68
2021/06/06 00:31:17;;;;;;;12.80;9.30;;;21.80;99.90;;;;;;5114858;28;20530;-67
2021/06/06 00:33:43;;;;;;;10.20;9.23;;;21.40;99.90;;;;;;5116184;28;20168;-68
2021/06/06 00:36:09;;;;;;;9.10;8.20;;;21.40;99.90;;;;;;5114765;28;20454;-67
2021/06/06 00:38:35;;;;;;;10.83;9.10;;;21.20;99.90;;;;;;5116070;28;20210;-67
2021/06/06 00:41:01;;;;;;;11.30;9.90;;;21.20;99.90;;;;;;5115954;28;20427;-68
2021/06/06 00:43:28;;;;;;;10.07;9.07;;;21.10;99.90;;;;;;5116046;28;20459;-68
2021/06/06 00:45:53;;;;;;;10.63;8.90;;;20.80;99.90;;;;;;5115896;28;20424;-67
2021/06/06 00:48:20;;;;;;;10.50;9.50;;;20.70;99.90;;;;;;5115922;28;20788;-68
2021/06/06 00:50:49;;;;;;;10.97;9.87;;;20.60;99.90;;;;;;5114409;28;20205;-67
2021/06/06 00:53:28;;;;;;;10.67;9.67;;;20.60;99.90;;;;;;5115683;28;20414;-67
2021/06/06 00:55:54;;;;;;;11.00;10.00;;;20.40;99.90;;;;;;5115733;28;20503;-68
2021/06/06 00:58:20;;;;;;;12.20;9.97;;;20.40;99.90;;;;;;5115652;28;20831;-68
2021/06/06 01:00:52;;;;;;;11.27;10.07;;;20.30;99.90;;;;;;5115502;28;20462;-68
2021/06/06 01:03:19;;;;;;;14.30;9.53;;;20.20;99.90;;;;;;5114281;28;20457;-68
2021/06/06 01:05:48;;;;;;;11.33;10.20;;;20.20;99.90;;;;;;5115436;28;20446;-68
2021/06/06 01:08:17;;;;;;;11.53;9.63;;;20.20;99.90;;;;;;5115519;28;20457;-67
2021/06/06 01:10:43;;;;;;;12.67;10.10;;;20.40;99.90;;;;;;5114035;28;20432;-68
2021/06/06 01:13:18;;;;;;;9.77;8.87;;;20.40;99.90;;;;;;5115407;28;20479;-67
2021/06/06 01:15:47;;;;;;;10.43;9.50;;;20.60;99.90;;;;;;5115285;28;20433;-67
2021/06/06 01:18:27;;;;;;;11.90;10.23;;;20.60;99.90;;;;;;5115198;28;20537;-68
2021/06/06 01:21:23;;;;;;;12.23;11.13;;;20.70;99.90;;;;;;5115200;28;20866;-67
2021/06/06 01:24:25;;;;;;;11.10;10.17;;;20.60;99.90;;;;;;5043227;28;20999;-68
2021/06/06 01:27:08;;;;;;;10.80;9.80;;;20.50;99.90;;;;;;5115316;28;20436;-67
2021/06/06 01:29:43;;;;;;;10.73;9.37;;;20.40;99.90;;;;;;5115116;28;20399;-67
2021/06/06 01:32:59;;;;;;;12.87;11.50;;;20.20;99.90;;;;;;5115332;28;20435;-67
2021/06/06 01:35:30;;;;;;;11.57;10.47;;;20.20;99.90;;;;;;5088617;28;20517;-67
2021/06/06 01:38:02;;;;;;;11.50;10.00;;;20.30;99.90;;;;;;5115441;28;20470;-68
2021/06/06 01:40:31;;;;;;;10.27;9.27;;;20.30;99.90;;;;;;5112946;28;20864;-67
2021/06/06 01:43:03;;;;;;;12.50;10.57;;;20.40;99.90;;;;;;5115299;28;20414;-67
2021/06/06 01:45:34;;;;;;;10.40;9.40;;;20.50;99.90;;;;;;5114878;28;20430;-67
2021/06/06 01:48:04;;;;;;;14.27;10.03;;;20.60;99.90;;;;;;5115240;28;20540;-67
2021/06/06 01:50:35;;;;;;;11.33;9.97;;;20.60;99.90;;;;;;5114791;28;21178;-67
2021/06/06 01:53:03;;;;;;;11.17;10.07;;;20.50;99.90;;;;;;5115206;28;20398;-67
2021/06/06 01:55:31;;;;;;;11.53;10.33;;;20.50;99.90;;;;;;5113328;28;20441;-68
2021/06/06 01:58:01;;;;;;;11.27;10.00;;;20.40;99.90;;;;;;5114951;28;20463;-68
2021/06/06 02:00:49;;;;;;;12.43;11.20;;;20.30;99.90;;;;;;5114654;28;20423;-67
2021/06/06 02:03:14;;;;;;;13.17;11.37;;;20.40;99.90;;;;;;5114662;28;20419;-67
2021/06/06 02:05:41;;;;;;;12.10;10.00;;;20.40;99.90;;;;;;5113214;28;20566;-68
2021/06/06 02:08:12;;;;;;;12.70;11.50;;;20.20;99.90;;;;;;5114466;28;20274;-68
2021/06/06 02:11:01;;;;;;;13.70;10.93;;;20.20;99.90;;;;;;5114475;28;20511;-67
2021/06/06 02:13:35;;;;;;;11.60;10.50;;;20.00;99.90;;;;;;5112053;28;20571;-68
2021/06/06 02:16:03;;;;;;;14.97;11.07;;;19.90;99.90;;;;;;5114288;28;20428;-68
2021/06/06 02:18:29;;;;;;;15.63;12.37;;;19.90;99.90;;;;;;5114161;28;20488;-68
2021/06/06 02:20:56;;;;;;;11.73;10.50;;;19.80;99.90;;;;;;5114084;28;20425;-67
2021/06/06 02:23:29;;;;;;;12.90;11.10;;;19.70;99.90;;;;;;5114277;28;20488;-68
2021/06/06 02:26:12;;;;;;;11.80;10.67;;;19.70;99.90;;;;;;5112926;28;20428;-67
2021/06/06 02:28:40;;;;;;;12.37;11.00;;;19.70;99.90;;;;;;5114248;28;20812;-68
2021/06/06 02:31:09;;;;;;;11.90;10.70;;;19.70;99.90;;;;;;5112814;28;20441;-68
2021/06/06 02:33:37;;;;;;;11.73;10.63;;;19.60;99.90;;;;;;5112908;28;20420;-68
2021/06/06 02:36:10;;;;;;;12.23;10.90;;;19.60;99.90;;;;;;5114063;28;20444;-68
2021/06/06 02:38:38;;;;;;;12.93;10.73;;;19.70;99.90;;;;;;5112852;28;20833;-68
2021/06/06 02:41:11;;;;;;;14.37;12.10;;;19.70;99.90;;;;;;5112595;28;20467;-67
2021/06/06 02:43:44;;;;;;;12.30;10.70;;;19.80;99.90;;;;;;5112177;28;20399;-68
2021/06/06 02:46:13;;;;;;;12.13;11.03;;;19.70;99.90;;;;;;5112390;28;20787;-67
2021/06/06 02:48:45;;;;;;;11.87;10.50;;;19.80;99.90;;;;;;5112409;28;20744;-69
2021/06/06 02:51:14;;;;;;;12.43;10.73;;;19.80;99.90;;;;;;5114544;28;20488;-68
2021/06/06 02:54:05;;;;;;;11.70;10.50;;;19.80;99.90;;;;;;5117100;28;20831;-69
2021/06/06 02:56:41;;;;;;;13.00;10.87;;;19.80;99.90;;;;;;5117893;28;20433;-68
2021/06/06 02:59:14;;;;;;;12.13;10.93;;;19.80;99.90;;;;;;5117917;28;20795;-68
2021/06/06 03:01:45;;;;;;;17.27;10.57;;;19.90;99.90;;;;;;5118180;28;20428;-68
2021/06/06 03:04:19;;;;;;;11.47;10.33;;;19.90;99.90;;;;;;5116750;28;20456;-68
2021/06/06 03:06:52;;;;;;;14.00;11.37;;;19.90;99.90;;;;;;5116588;28;20447;-67
2021/06/06 03:09:19;;;;;;;13.10;11.70;;;19.90;99.90;;;;;;5118084;28;20452;-69
2021/06/06 03:11:46;;;;;;;11.97;10.87;;;19.70;99.90;;;;;;5116459;28;20473;-68
2021/06/06 03:14:17;;;;;;;13.30;10.93;;;19.90;99.90;;;;;;5117850;28;20414;-68
2021/06/06 03:17:35;;;;;;;11.20;10.00;;;19.80;99.90;;;;;;5117665;28;20476;-68
2021/06/06 03:20:07;;;;;;;11.30;10.30;;;19.90;99.90;;;;;;5084121;28;20426;-68
2021/06/06 03:22:35;;;;;;;11.57;10.47;;;19.90;99.90;;;;;;5118006;28;20432;-68
2021/06/06 03:25:06;;;;;;;14.10;12.07;;;20.00;99.90;;;;;;5117501;28;20738;-68
2021/06/06 03:27:42;;;;;;;15.23;11.70;;;19.90;99.90;;;;;;5118027;28;20917;-68
2021/06/06 03:30:13;;;;;;;13.53;11.20;;;19.90;99.90;;;;;;5117449;28;20394;-68
2021/06/06 03:32:42;;;;;;;11.87;10.77;;;20.00;99.90;;;;;;5117812;28;20422;-68
2021/06/06 03:35:10;;;;;;;13.10;11.80;;;20.00;99.90;;;;;;5117319;28;20402;-68
2021/06/06 03:37:36;;;;;;;13.30;11.30;;;19.90;99.90;;;;;;5117704;28;20505;-68
2021/06/06 03:40:04;;;;;;;12.60;11.30;;;19.90;99.90;;;;;;5117233;28;20766;-68
2021/06/06 03:42:30;;;;;;;13.57;12.17;;;19.90;99.90;;;;;;5117671;28;20422;-68
2021/06/06 03:44:56;;;;;;;15.30;11.90;;;20.00;99.90;;;;;;5117105;28;20528;-68
2021/06/06 03:47:23;;;;;;;13.20;11.80;;;20.10;99.90;;;;;;5115779;28;20877;-70
2021/06/06 03:49:48;;;;;;;12.07;10.97;;;20.10;99.90;;;;;;5117014;28;20254;-70
2021/06/06 03:52:14;;;;;;;13.90;12.43;;;20.10;99.90;;;;;;5117254;28;20483;-68
2021/06/06 03:54:40;;;;;;;13.60;11.70;;;20.20;99.90;;;;;;5116976;28;20171;-68
2021/06/06 03:57:06;;;;;;;14.03;12.60;;;20.30;99.90;;;;;;5117101;28;20780;-69
2021/06/06 03:59:32;;;;;;;13.40;12.10;;;20.30;99.90;;;;;;5116855;28;20206;-69
2021/06/06 04:01:58;;;;;;;12.80;11.53;;;20.30;99.90;;;;;;5116098;28;20788;-67
2021/06/06 04:04:23;;;;;;;13.23;11.43;;;20.20;99.90;;;;;;5116854;28;20227;-69
2021/06/06 04:06:49;;;;;;;13.33;11.77;;;20.20;99.90;;;;;;5116800;28;20294;-68
2021/06/06 04:09:16;;;;;;;14.77;13.27;;;20.10;99.90;;;;;;5116768;28;20685;-68
2021/06/06 04:11:42;;;;;;;12.30;11.10;;;20.10;99.90;;;;;;5116556;28;20671;-69
2021/06/06 04:14:08;;;;;;;15.03;13.03;;;20.10;99.90;;;;;;5116633;28;20434;-69
2021/06/06 04:16:35;;;;;;;14.40;12.93;;;20.10;99.90;;;;;;5116437;28;20671;-68
2021/06/06 04:19:00;;;;;;;13.40;12.00;;;20.20;99.90;;;;;;5116445;28;20447;-68
2021/06/06 04:21:30;;;;;;;15.00;11.23;;;20.20;99.90;;;;;;5116515;28;20442;-68
2021/06/06 04:23:55;;;;;;;13.47;12.17;;;20.30;99.90;;;;;;5115047;28;20656;-68
2021/06/06 04:26:22;;;;;;;13.23;11.90;;;20.40;99.90;;;;;;5116226;28;20454;-68
2021/06/06 04:28:48;;;;;;;12.80;11.60;;;20.50;99.90;;;;;;5116383;28;20181;-68
2021/06/06 04:31:15;;;;;;;14.73;12.80;;;20.60;99.90;;;;;;5116344;28;20474;-68
2021/06/06 04:33:41;;;;;;;13.30;11.93;;;20.50;99.90;;;;;;5116325;28;20488;-69
2021/06/06 04:36:08;;;;;;;14.33;12.30;;;20.70;99.90;;;;;;5115905;28;20449;-68
2021/06/06 04:38:34;;;;;;;13.57;11.70;;;20.70;99.90;;;;;;5116149;28;20617;-68
2021/06/06 04:41:04;;;;;;;14.33;12.17;;;20.70;99.90;;;;;;5116036;28;20419;-68
2021/06/06 04:43:29;;;;;;;18.43;13.23;;;20.70;99.90;;;;;;5116720;28;20888;-68
2021/06/06 04:45:55;;;;;;;13.63;12.00;;;20.70;99.90;;;;;;5115921;28;20425;-68
2021/06/06 04:48:26;;;;;;;13.17;11.97;;;20.70;99.90;;;;;;5114665;28;20658;-68
2021/06/06 04:50:53;;;;;;;13.07;11.77;;;20.70;99.90;;;;;;5115700;28;20439;-68
2021/06/06 04:53:19;;;;;;;13.90;12.50;;;20.60;99.90;;;;;;5115883;28;20405;-68
2021/06/06 04:55:46;;;;;;;12.87;11.57;;;20.60;99.90;;;;;;5115658;28;20537;-68
2021/06/06 04:58:14;;;;;;;12.70;11.50;;;20.60;99.90;;;;;;5115714;28;20259;-68
2021/06/06 05:00:41;;;;;;;16.80;11.60;;;20.70;99.90;;;;;;5114733;28;20438;-68
2021/06/06 05:03:08;;;;;;;12.60;11.43;;;20.70;99.90;;;;;;5114362;28;20584;-68
2021/06/06 05:05:34;;;;;;;12.57;11.37;;;20.70;99.90;;;;;;5115572;28;20428;-68
2021/06/06 05:08:02;;;;;;;14.10;12.13;;;20.60;99.90;;;;;;5115449;28;20424;-67
2021/06/06 05:10:30;;;;;;;12.90;11.60;;;20.50;99.90;;;;;;5115516;28;20919;-68
2021/06/06 05:12:56;;;;;;;14.60;12.30;;;20.50;99.90;;;;;;5115986;28;20835;-68
2021/06/06 05:15:23;;;;;;;14.00;12.63;;;20.40;99.90;;;;;;5114108;28;20518;-68
2021/06/06 05:17:50;;;;;;;16.50;13.07;;;20.40;99.90;;;;;;5115314;28;20239;-69
2021/06/06 05:20:18;;;;;;;16.90;13.13;;;20.30;99.90;;;;;;5113961;28;20443;-68
2021/06/06 05:22:43;;;;;;;17.23;13.43;;;20.30;99.90;;;;;;5115616;28;20418;-68
2021/06/06 05:25:10;;;;;;;14.63;13.13;;;20.20;99.90;;;;;;5115205;28;20400;-68
2021/06/06 05:27:35;;;;;;;15.87;14.27;;;20.10;99.90;;;;;;5114069;28;20274;-68
2021/06/06 05:30:08;;;;;;;16.20;13.53;;;20.00;99.90;;;;;;5115060;28;20435;-68
2021/06/06 05:32:33;;;;;;;15.80;13.50;;;20.00;99.90;;;;;;5113760;28;20225;-68
2021/06/06 05:34:59;;;;;;;17.70;14.70;;;20.00;99.90;;;;;;5113648;28;20415;-68
2021/06/06 05:37:24;;;;;;;17.00;14.17;;;20.00;99.90;;;;;;5115285;28;20179;-68
2021/06/06 05:39:52;;;;;;;17.10;14.00;;;20.10;99.90;;;;;;5114882;28;20641;-68
2021/06/06 05:42:18;;;;;;;16.70;13.67;;;20.10;99.90;;;;;;5114974;28;20187;-68
2021/06/06 05:44:43;;;;;;;17.90;13.60;;;20.10;99.90;;;;;;5113734;28;20932;-69
2021/06/06 05:47:09;;;;;;;19.07;14.00;;;20.10;99.90;;;;;;5115001;28;20221;-68
2021/06/06 05:49:34;;;;;;;15.30;13.90;;;20.10;99.90;;;;;;5113596;28;20186;-69
2021/06/06 05:52:00;;;;;;;16.50;14.90;;;20.00;99.90;;;;;;5114900;28;20692;-68
2021/06/06 05:54:26;;;;;;;17.33;14.43;;;19.90;99.90;;;;;;5114692;28;20220;-69
2021/06/06 05:56:51;;;;;;;15.60;14.00;;;19.90;99.90;;;;;;5114766;28;20202;-68
2021/06/06 05:59:17;;;;;;;15.43;14.03;;;20.00;99.90;;;;;;5114543;28;20570;-68
2021/06/06 06:01:43;;;;;;;15.17;13.60;;;20.10;99.90;;;;;;5113125;28;20234;-68
2021/06/06 06:04:08;;;;;;;15.20;13.70;;;20.00;99.90;;;;;;5114524;28;20255;-69
2021/06/06 06:06:34;;;;;;;15.90;14.30;;;20.10;99.90;;;;;;5113251;28;20202;-68
2021/06/06 06:09:00;;;;;;;14.90;13.43;;;20.20;99.90;;;;;;5114447;28;20172;-69
2021/06/06 06:11:25;;;;;;;16.07;13.10;;;20.30;99.90;;;;;;5114245;28;20271;-68
2021/06/06 06:13:53;;;;;;;15.23;13.60;;;20.30;99.90;;;;;;5114382;28;20189;-69
2021/06/06 06:16:21;;;;;;;16.63;14.93;;;20.30;99.90;;;;;;5114474;28;20211;-68
2021/06/06 06:18:49;;;;;;;17.27;14.37;;;20.30;99.90;;;;;;5114277;28;20459;-68
2021/06/06 06:21:16;;;;;;;15.00;13.60;;;20.20;99.90;;;;;;5113016;28;20536;-68
2021/06/06 06:23:43;;;;;;;15.80;14.30;;;20.20;99.90;;;;;;5114378;28;20406;-68
2021/06/06 06:26:09;;;;;;;18.43;15.20;;;20.20;99.90;;;;;;5112331;28;20492;-68
2021/06/06 06:28:35;;;;;;;16.73;15.03;;;20.20;99.90;;;;;;5114326;28;20813;-68
2021/06/06 06:31:01;;;;;;;15.97;14.37;;;20.20;99.90;;;;;;5114100;28;20443;-68
2021/06/06 06:33:27;;;;;;;15.80;14.10;;;20.10;99.90;;;;;;5114176;28;20582;-68
2021/06/06 06:35:52;;;;;;;15.87;14.17;;;20.30;99.90;;;;;;5114047;28;20423;-68
2021/06/06 06:38:18;;;;;;;16.37;14.57;;;20.20;99.90;;;;;;5112745;28;20202;-68
2021/06/06 06:40:44;;;;;;;15.60;13.97;;;20.30;99.90;;;;;;5113867;28;20208;-69
2021/06/06 06:43:10;;;;;;;16.97;15.27;;;20.40;99.90;;;;;;5114137;28;20171;-68
2021/06/06 06:45:41;;;;;;;17.03;15.23;;;20.30;99.90;;;;;;5112763;28;20582;-68
2021/06/06 06:48:14;;;;;;;16.63;14.90;;;20.30;99.90;;;;;;5112991;28;20438;-68
2021/06/06 06:50:41;;;;;;;16.67;14.67;;;20.30;99.90;;;;;;5112714;28;20427;-68
2021/06/06 06:53:07;;;;;;;15.33;13.83;;;20.60;99.90;;;;;;5114446;28;20641;-69
2021/06/06 06:55:33;;;;;;;17.40;15.60;;;20.80;99.90;;;;;;5113860;28;20458;-68
2021/06/06 06:58:01;;;;;;;16.37;14.70;;;20.80;99.90;;;;;;5114347;28;20486;-68
2021/06/06 07:00:30;;;;;;;16.57;14.43;;;20.80;99.90;;;;;;5113853;28;20202;-68
2021/06/06 07:02:56;;;;;;;22.83;14.47;;;20.80;99.90;;;;;;5114337;28;20415;-68
2021/06/06 07:05:22;;;;;;;15.60;14.10;;;21.00;99.90;;;;;;5113953;28;20795;-68
2021/06/06 07:07:48;;;;;;;15.00;13.57;;;21.00;99.90;;;;;;5114253;28;20683;-68
2021/06/06 07:10:18;;;;;;;13.47;12.27;;;21.20;99.90;;;;;;5112443;28;20527;-69
2021/06/06 07:12:44;;;;;;;15.73;14.17;;;21.40;99.90;;;;;;5114200;28;20186;-68
2021/06/06 07:15:12;;;;;;;16.00;14.40;;;21.40;99.90;;;;;;5113852;28;20436;-69
2021/06/06 07:17:38;;;;;;;13.47;12.13;;;21.40;99.90;;;;;;5113747;28;20239;-68
2021/06/06 07:20:07;;;;;;;15.10;12.07;;;21.70;99.90;;;;;;5113708;28;20452;-68
2021/06/06 07:22:33;;;;;;;14.07;12.60;;;21.80;99.90;;;;;;5112655;28;20189;-68
2021/06/06 07:24:59;;;;;;;18.10;11.70;;;21.90;99.90;;;;;;5113625;28;20396;-68
2021/06/06 07:27:25;;;;;;;12.33;11.03;;;21.90;99.90;;;;;;5114018;28;20503;-68
2021/06/06 07:29:53;;;;;;;13.37;12.07;;;22.00;99.90;;;;;;5113536;28;20175;-68
2021/06/06 07:32:20;;;;;;;13.17;11.87;;;22.40;99.90;;;;;;5113957;28;20423;-67
2021/06/06 07:34:47;;;;;;;12.23;10.93;;;22.60;99.90;;;;;;5113525;28;20430;-68
2021/06/06 07:37:14;;;;;;;12.83;10.70;;;22.90;99.90;;;;;;5114678;28;20439;-68
2021/06/06 07:39:40;;;;;;;11.63;10.50;;;23.20;99.90;;;;;;5117187;28;20459;-69
2021/06/06 07:42:07;;;;;;;10.90;9.90;;;23.40;99.90;;;;;;5115934;28;20508;-68
2021/06/06 07:44:34;;;;;;;11.50;10.43;;;23.50;99.90;;;;;;5117242;28;21042;-68
2021/06/06 07:47:00;;;;;;;12.20;11.10;;;23.40;99.90;;;;;;5117453;28;20580;-67
2021/06/06 07:49:26;;;;;;;11.50;10.30;;;23.30;99.90;;;;;;5117250;28;20915;-70
2021/06/06 07:51:52;;;;;;;10.40;9.50;;;23.30;99.90;;;;;;5115791;28;20491;-68
2021/06/06 07:54:17;;;;;;;11.40;10.33;;;23.10;99.90;;;;;;5117103;28;20175;-68
2021/06/06 07:56:43;;;;;;;10.93;9.67;;;23.30;99.90;;;;;;5115653;28;20199;-68
2021/06/06 07:59:09;;;;;;;10.13;9.13;;;23.30;99.90;;;;;;5116842;28;20509;-69
2021/06/06 08:01:34;;;;;;;11.27;10.10;;;23.50;99.90;;;;;;5116980;28;20206;-68
2021/06/06 08:04:00;;;;;;;10.40;9.47;;;23.40;99.90;;;;;;5116790;28;20172;-69
2021/06/06 08:06:26;;;;;;;10.97;9.87;;;23.30;99.90;;;;;;5116800;28;20192;-68
2021/06/06 08:08:53;;;;;;;10.77;9.70;;;23.00;99.90;;;;;;5115270;28;20274;-69
2021/06/06 08:11:18;;;;;;;10.57;9.47;;;22.90;99.90;;;;;;5116721;28;20448;-68
2021/06/06 08:13:44;;;;;;;10.17;9.17;;;23.10;99.90;;;;;;5116609;28;20395;-68
2021/06/06 08:16:10;;;;;;;10.47;8.67;;;23.30;99.90;;;;;;5116670;28;20253;-68
2021/06/06 08:18:39;;;;;;;9.87;8.93;;;23.50;99.90;;;;;;5115247;28;20322;-68
2021/06/06 08:21:18;;;;;;;8.23;7.53;;;23.80;99.90;;;;;;5116410;28;20534;-68
2021/06/06 08:23:44;;;;;;;10.40;7.90;;;23.50;99.90;;;;;;5116535;28;20873;-68
2021/06/06 08:26:11;;;;;;;11.40;8.13;;;23.40;99.90;;;;;;5116532;28;20451;-68
2021/06/06 08:28:37;;;;;;;8.13;7.37;;;23.70;99.90;;;;;;5116399;28;20395;-68
2021/06/06 08:31:10;;;;;;;7.03;6.37;;;23.90;99.90;;;;;;5116242;28;20935;-69
2021/06/06 08:33:37;;;;;;;7.57;6.80;;;24.20;99.90;;;;;;5116337;28;20392;-69
2021/06/06 08:36:12;;;;;;;7.50;6.80;;;24.40;99.90;;;;;;5116130;28;20440;-69
2021/06/06 08:38:38;;;;;;;7.43;6.73;;;24.40;99.90;;;;;;5116206;28;20474;-69
2021/06/06 08:41:16;;;;;;;6.37;5.83;;;24.70;99.90;;;;;;5116023;28;20757;-69
2021/06/06 08:44:00;;;;;;;7.93;7.13;;;24.70;99.90;;;;;;5114781;28;20407;-69
2021/06/06 08:46:28;;;;;;;6.77;6.17;;;24.60;99.90;;;;;;5116059;28;20436;-68
2021/06/06 08:48:56;;;;;;;6.40;5.80;;;24.60;99.90;;;;;;5115586;28;20414;-69
2021/06/06 08:51:45;;;;;;;8.33;6.97;;;24.80;99.90;;;;;;5114600;28;20466;-68
2021/06/06 08:54:21;;;;;;;7.13;6.43;;;24.80;99.90;;;;;;5116069;28;20818;-68
2021/06/06 08:56:52;;;;;;;6.27;5.73;;;24.70;99.90;;;;;;5116015;28;20473;-68
2021/06/06 08:59:23;;;;;;;6.00;5.50;;;24.50;99.90;;;;;;5115734;28;20460;-68
2021/06/06 09:01:56;;;;;;;6.07;5.57;;;25.00;99.90;;;;;;5115726;28;20458;-68
2021/06/06 09:04:32;;;;;;;5.77;5.20;;;25.30;99.90;;;;;;5114421;28;20413;-68
2021/06/06 09:07:02;;;;;;;4.47;4.17;;;24.90;99.90;;;;;;5115783;28;20437;-68
2021/06/06 09:09:33;;;;;;;5.17;4.67;;;25.00;99.90;;;;;;5115543;28;20412;-69
2021/06/06 09:12:06;;;;;;;5.90;5.40;;;25.30;99.90;;;;;;5115489;28;20469;-68
2021/06/06 09:14:32;;;;;;;4.90;4.50;;;25.20;99.90;;;;;;5115436;28;20403;-69
2021/06/06 09:17:07;;;;;;;4.77;4.37;;;24.90;99.90;;;;;;5115189;28;20473;-68
2021/06/06 09:19:52;;;;;;;5.40;4.90;;;25.70;99.90;;;;;;5115349;28;20454;-68
2021/06/06 09:22:40;;;;;;;4.97;4.57;;;25.80;99.90;;;;;;5115699;28;20959;-68
2021/06/06 09:25:29;;;;;;;5.10;4.70;;;25.70;99.90;;;;;;5112908;28;20431;-68
2021/06/06 09:28:04;;;;;;;4.80;4.40;;;26.10;99.90;;;;;;5113798;28;20510;-69
2021/06/06 09:30:30;;;;;;;4.57;4.17;;;26.00;99.90;;;;;;5113002;28;21414;-68
2021/06/06 09:33:12;;;;;;;8.43;4.73;;;25.60;99.90;;;;;;5113293;28;20424;-69
2021/06/06 09:35:50;;;;;;;4.47;4.07;;;25.70;99.90;;;;;;5112963;28;20273;-68
2021/06/06 09:38:22;;;;;;;4.50;4.20;;;26.60;99.90;;;;;;5112804;28;20450;-68
2021/06/06 09:40:50;;;;;;;6.40;4.00;;;26.90;99.90;;;;;;5112693;28;20426;-69
2021/06/06 09:43:43;;;;;;;4.67;4.27;;;27.10;99.90;;;;;;5113536;28;20762;-69
2021/06/06 09:46:17;;;;;;;4.70;4.30;;;27.20;99.90;;;;;;5111779;28;20918;-69
2021/06/06 09:48:44;;;;;;;4.47;4.07;;;27.30;99.90;;;;;;5114625;28;20423;-69
2021/06/06 09:51:31;;;;;;;4.33;3.97;;;27.30;99.90;;;;;;5114751;28;20447;-69
2021/06/06 09:54:17;;;;;;;4.37;4.00;;;27.20;99.90;;;;;;5113727;28;20419;-68
2021/06/06 09:56:52;;;;;;;5.27;4.57;;;27.30;99.90;;;;;;5114829;28;20435;-69
2021/06/06 09:59:26;;;;;;;4.87;4.47;;;27.10;99.90;;;;;;5114155;28;20486;-69
2021/06/06 10:01:55;;;;;;;4.50;4.10;;;26.90;99.90;;;;;;5114329;28;20451;-68
2021/06/06 10:04:31;;;;;;;4.43;4.13;;;27.10;99.90;;;;;;5113343;28;20750;-68
2021/06/06 10:07:34;;;;;;;4.73;4.00;;;27.00;99.90;;;;;;5113385;28;20435;-68
2021/06/06 10:10:15;;;;;;;4.50;4.10;;;27.20;99.90;;;;;;5112870;28;20916;-68
2021/06/06 10:12:43;;;;;;;8.73;5.40;;;27.30;99.90;;;;;;5114897;28;20468;-68
2021/06/06 10:15:14;;;;;;;4.77;4.30;;;26.30;99.90;;;;;;5113066;28;20499;-68
2021/06/06 10:17:54;;;;;;;5.23;3.93;;;26.80;99.90;;;;;;5114222;28;20470;-68
2021/06/06 10:20:23;;;;;;;4.60;4.20;;;26.90;99.90;;;;;;5114359;28;20435;-68
2021/06/06 10:23:02;;;;;;;4.20;3.80;;;26.90;99.90;;;;;;5096156;28;20447;-69
2021/06/06 10:25:55;;;;;;;4.00;3.60;;;27.10;99.90;;;;;;5114372;28;20955;-69
2021/06/06 10:28:43;;;;;;;4.20;3.90;;;27.20;99.90;;;;;;5114407;28;20924;-69
2021/06/06 10:31:14;;;;;;;4.07;3.77;;;27.30;99.90;;;;;;5112278;28;20451;-69
2021/06/06 10:33:46;;;;;;;4.03;3.73;;;27.40;99.90;;;;;;5114149;28;20404;-69
2021/06/06 10:36:15;;;;;;;4.80;3.83;;;27.40;99.90;;;;;;5113015;28;20459;-68
2021/06/06 10:38:41;;;;;;;5.33;4.83;;;26.90;99.90;;;;;;5112798;28;20466;-69
2021/06/06 10:41:15;;;;;;;6.60;4.73;;;27.00;99.90;;;;;;5113944;28;20443;-69
2021/06/06 10:43:45;;;;;;;13.13;8.83;;;27.20;99.90;;;;;;5114229;28;20743;-68
2021/06/06 10:46:19;;;;;;;7.43;5.60;;;27.50;99.90;;;;;;5113860;28;20529;-69
2021/06/06 10:49:17;;;;;;;3.60;3.30;;;27.20;99.90;;;;;;5114040;28;20404;-68
2021/06/06 10:52:04;;;;;;;3.70;3.40;;;27.10;99.90;;;;;;5076675;28;20445;-69
2021/06/06 10:54:36;;;;;;;6.30;4.50;;;27.60;99.90;;;;;;5114031;28;20400;-69
2021/06/06 10:57:09;;;;;;;3.90;3.70;;;27.90;99.90;;;;;;5114140;28;20971;-68
2021/06/06 10:59:35;;;;;;;5.40;4.20;;;28.00;99.90;;;;;;5112660;28;21112;-68
2021/06/06 11:02:03;;;;;;;4.80;4.40;;;28.00;99.90;;;;;;5112783;28;20533;-68
2021/06/06 11:04:34;;;;;;;4.03;3.73;;;28.10;99.90;;;;;;5112625;28;20172;-68
2021/06/06 11:07:08;;;;;;;4.60;4.20;;;28.00;99.90;;;;;;5113983;28;20444;-68
2021/06/06 11:09:36;;;;;;;4.60;4.20;;;27.80;99.60;;;;;;5113861;28;20798;-69
2021/06/06 11:12:12;;;;;;;4.60;4.17;;;27.80;99.20;;;;;;5114812;28;20994;-69
2021/06/06 11:14:41;;;;;;;4.27;3.97;;;27.80;99.90;;;;;;5117808;28;20490;-68
2021/06/06 11:17:33;;;;;;;5.17;4.70;;;27.70;99.90;;;;;;5117551;28;20650;-69
2021/06/06 11:20:31;;;;;;;5.17;4.40;;;27.80;99.50;;;;;;5112811;28;20487;-69
2021/06/06 11:22:57;;;;;;;4.10;3.80;;;28.00;99.90;;;;;;5118144;28;20638;-68
2021/06/06 11:25:36;;;;;;;4.30;4.00;;;27.90;99.90;;;;;;5117639;28;21013;-69
2021/06/06 11:28:08;;;;;;;4.57;4.20;;;27.50;99.90;;;;;;5116488;28;20459;-68
2021/06/06 11:30:37;;;;;;;4.23;3.93;;;28.00;99.90;;;;;;5117470;28;20838;-68
2021/06/06 11:33:08;;;;;;;4.80;4.40;;;28.10;99.90;;;;;;5117854;28;20416;-69
2021/06/06 11:35:36;;;;;;;5.13;4.73;;;28.00;99.90;;;;;;5117441;28;20471;-69
2021/06/06 11:38:32;;;;;;;4.43;4.13;;;28.20;99.90;;;;;;5117667;28;20447;-68
2021/06/06 11:41:06;;;;;;;5.40;4.90;;;28.40;99.90;;;;;;5117307;28;20439;-68
2021/06/06 11:43:39;;;;;;;4.90;4.40;;;28.50;99.30;;;;;;5117234;28;20423;-69
2021/06/06 11:46:22;;;;;;;4.67;4.27;;;28.60;98.00;;;;;;5115840;28;20611;-69
2021/06/06 11:48:58;;;;;;;7.23;4.77;;;28.50;98.40;;;;;;5117089;28;20463;-69
2021/06/06 11:51:46;;;;;;;5.13;4.73;;;28.60;97.70;;;;;;5117175;28;20436;-69
2021/06/06 11:54:53;;;;;;;4.60;4.30;;;28.50;99.30;;;;;;5115708;28;20432;-69
2021/06/06 11:57:40;;;;;;;4.93;4.53;;;28.60;98.40;;;;;;5113589;28;20535;-69
2021/06/06 12:00:43;;;;;;;5.40;5.00;;;28.40;99.90;;;;;;5115461;28;20933;-68
2021/06/06 12:03:26;;;;;;;5.03;4.60;;;27.70;99.90;;;;;;5095324;28;20943;-68
2021/06/06 12:06:06;;;;;;;5.83;5.23;;;27.70;99.90;;;;;;5116613;28;20428;-68
2021/06/06 12:08:49;;;;;;;6.30;5.70;;;28.00;99.90;;;;;;5116759;28;20404;-69
2021/06/06 12:11:19;;;;;;;4.87;4.57;;;28.30;97.90;;;;;;5115388;28;20543;-68
2021/06/06 12:13:46;;;;;;;5.83;5.33;;;28.30;97.30;;;;;;5115317;28;20424;-69
2021/06/06 12:16:22;;;;;;;5.53;5.03;;;28.30;99.60;;;;;;5116370;28;20446;-69
2021/06/06 12:19:11;;;;;;;6.90;6.13;;;28.20;97.30;;;;;;5116335;28;20951;-69
2021/06/06 12:21:40;;;;;;;6.13;5.53;;;28.30;97.50;;;;;;5115354;28;20455;-68
2021/06/06 12:24:12;;;;;;;6.20;5.70;;;28.50;96.40;;;;;;5115711;28;20398;-68
2021/06/06 12:26:42;;;;;;;5.30;4.90;;;28.40;99.60;;;;;;5116611;28;20500;-69
2021/06/06 12:29:09;;;;;;;6.43;5.93;;;28.50;96.90;;;;;;5116327;28;20810;-69
2021/06/06 12:31:46;;;;;;;6.33;5.90;;;28.50;97.20;;;;;;5116424;28;20463;-68
2021/06/06 12:34:21;;;;;;;6.03;5.53;;;28.40;99.20;;;;;;5115114;28;20935;-69
2021/06/06 12:36:48;;;;;;;6.47;5.97;;;28.30;99.40;;;;;;5116385;28;20446;-68
2021/06/06 12:39:20;;;;;;;5.73;5.23;;;28.20;98.10;;;;;;5116153;28;20821;-68
2021/06/06 12:41:48;;;;;;;6.57;5.70;;;28.20;99.20;;;;;;5115856;28;20450;-69
2021/06/06 12:44:25;;;;;;;5.87;5.30;;;28.20;97.40;;;;;;5116046;28;20454;-69
2021/06/06 12:47:04;;;;;;;5.73;5.33;;;28.20;96.90;;;;;;5116200;28;20451;-69
2021/06/06 12:49:52;;;;;;;6.03;5.63;;;28.30;99.00;;;;;;5116131;28;20865;-69
2021/06/06 12:52:52;;;;;;;5.93;5.43;;;28.20;97.60;;;;;;5116356;28;20444;-69
2021/06/06 12:55:39;;;;;;;6.03;5.53;;;28.40;98.00;;;;;;5113476;28;20440;-69
2021/06/06 12:58:14;;;;;;;6.03;5.53;;;28.20;99.10;;;;;;5116238;28;20463;-69